CheckWX is a tool to help pilots better visualize weather data.  It is not intended as a substitute for an official pre-flight weather briefing.

18:17:33 UTC

KAPF METAR
Naples Municipal Airport
Naples, Florida, USA
Current

25 mins ago

KAPF 241753Z 25009KT 10SM CLR 26/18 A3003 RMK AO2 SLP166 T02610183 10283 20189 58011
Observed
Apr-24 @ 17:53 UTC
Wind
  • 250° at 9 KTS
Visibility
10 SM
Flight Rules
VFR
Cloud Levels
  • Clear skies
Temperature
26°C / 79°F
Dewpoint
18°C / 64°F
Humidity
61%
Altimeter
30.03" Hg
Pressure
1016.92 hPa
Previous

1 hour ago

KAPF 241653Z 16007KT 10SM CLR 27/16 A3004 RMK AO2 SLP172 T02720161
Observed
Apr-24 @ 16:53 UTC
Wind
  • 160° at 7 KTS
Visibility
10 SM
Flight Rules
VFR
Cloud Levels
  • Clear skies
Temperature
27°C / 81°F
Dewpoint
16°C / 61°F
Heat Index
28°C / 82°F
Humidity
51%
Altimeter
30.04" Hg
Pressure
1017.32 hPa
Previous

2 hours ago

KAPF 241553Z 03003KT 10SM CLR 27/17 A3006 RMK AO2 SLP179 T02670167
Observed
Apr-24 @ 15:53 UTC
Wind
  • 030° at 3 KTS
Visibility
10 SM
Flight Rules
VFR
Cloud Levels
  • Clear skies
Temperature
27°C / 81°F
Dewpoint
17°C / 63°F
Heat Index
28°C / 82°F
Humidity
54%
Altimeter
30.06" Hg
Pressure
1017.92 hPa